createdAt,value
2022-12-22T00:02:55.114Z,30.48
2022-12-22T00:06:19.384Z,32.45
2022-12-22T00:09:43.451Z,32.83
2022-12-22T00:13:08.173Z,30.83
2022-12-22T00:16:32.175Z,29.55
2022-12-22T00:19:56.222Z,32.13
2022-12-22T00:23:20.245Z,30.05
2022-12-22T00:26:45.151Z,30.02
2022-12-22T00:30:08.984Z,30.35
2022-12-22T00:33:35.722Z,33.83
2022-12-22T00:36:59.694Z,32.80
2022-12-22T00:40:45.880Z,31.25
2022-12-22T00:44:10.594Z,32.20
2022-12-22T00:47:48.218Z,32.25
2022-12-22T00:51:12.336Z,30.92
2022-12-22T00:54:37.980Z,30.55
2022-12-22T00:58:02.502Z,33.70
2022-12-22T01:01:27.531Z,32.50
2022-12-22T01:04:51.306Z,32.17
2022-12-22T01:08:15.570Z,33.30
2022-12-22T01:11:39.609Z,34.17
2022-12-22T01:15:03.615Z,32.72
2022-12-22T01:18:27.618Z,31.75
2022-12-22T01:21:51.513Z,30.83
2022-12-22T01:25:15.513Z,31.58
2022-12-22T01:28:39.666Z,32.53
2022-12-22T01:32:04.521Z,32.47
2022-12-22T01:35:41.117Z,31.48
2022-12-22T01:39:05.212Z,31.38
2022-12-22T01:42:31.417Z,33.03
2022-12-22T01:45:56.048Z,33.13
2022-12-22T01:49:20.247Z,30.77
2022-12-22T01:52:53.899Z,33.30
2022-12-22T01:56:19.068Z,30.80
2022-12-22T01:59:42.953Z,31.50
2022-12-22T02:03:06.930Z,30.55
2022-12-22T02:06:39.414Z,31.20
2022-12-22T02:10:13.745Z,31.17
2022-12-22T02:14:04.688Z,31.75
2022-12-22T02:17:36.587Z,29.63
2022-12-22T02:21:14.750Z,30.55
2022-12-22T02:25:00.615Z,32.72
2022-12-22T02:28:25.519Z,30.83
2022-12-22T02:31:59.192Z,29.85
2022-12-22T02:35:31.206Z,29.35
2022-12-22T02:39:10.429Z,31.50
2022-12-22T02:43:12.591Z,29.98
2022-12-22T02:47:05.333Z,31.70
2022-12-22T02:50:53.455Z,29.13
2022-12-22T02:54:18.514Z,29.80
2022-12-22T02:57:42.731Z,29.27
2022-12-22T03:01:06.561Z,29.35
2022-12-22T03:04:30.679Z,30.02
2022-12-22T03:07:55.643Z,28.45
2022-12-22T03:11:19.457Z,31.10
2022-12-22T03:14:43.503Z,29.52
2022-12-22T03:18:07.414Z,30.92
2022-12-22T03:21:31.232Z,31.13
2022-12-22T03:24:55.070Z,27.23
2022-12-22T03:28:06.258Z,29.45
2022-12-22T03:31:12.552Z,29.13
2022-12-22T03:34:18.256Z,27.88
2022-12-22T03:37:24.309Z,28.92
2022-12-22T03:40:31.898Z,29.13
2022-12-22T03:43:55.931Z,31.20
2022-12-22T03:47:01.391Z,28.50
2022-12-22T03:50:07.761Z,27.73
2022-12-22T03:53:13.602Z,28.15
2022-12-22T03:56:19.262Z,28.27
2022-12-22T03:59:25.027Z,28.33
2022-12-22T04:02:30.746Z,29.77
2022-12-22T04:05:36.428Z,28.23
2022-12-22T04:08:42.421Z,28.60
2022-12-22T04:12:06.402Z,28.40
2022-12-22T04:15:12.125Z,29.48
2022-12-22T04:18:17.924Z,28.65
2022-12-22T04:21:23.439Z,29.85
2022-12-22T04:24:29.024Z,30.92
2022-12-22T04:27:34.365Z,30.50
2022-12-22T04:30:40.262Z,30.23
2022-12-22T04:33:46.395Z,28.63
2022-12-22T04:36:52.311Z,30.33
2022-12-22T04:39:58.446Z,26.70
2022-12-22T04:43:04.341Z,30.48
2022-12-22T04:46:09.919Z,29.50
2022-12-22T04:49:15.610Z,28.50
2022-12-22T04:52:21.157Z,31.42
2022-12-22T04:55:27.218Z,29.90
2022-12-22T04:58:34.292Z,31.75
2022-12-22T05:01:40.230Z,29.25
2022-12-22T05:04:45.961Z,29.27
2022-12-22T05:07:51.304Z,28.42
2022-12-22T05:10:56.695Z,28.92
2022-12-22T05:14:07.068Z,29.50
2022-12-22T05:17:13.243Z,28.47
2022-12-22T05:20:19.129Z,29.38
2022-12-22T05:23:24.326Z,29.33
2022-12-22T05:26:29.845Z,31.33
2022-12-22T05:29:35.637Z,31.20
2022-12-22T05:32:40.937Z,29.02
2022-12-22T05:35:47.231Z,27.92
2022-12-22T05:38:53.214Z,30.35
2022-12-22T05:41:58.626Z,29.30
2022-12-22T05:45:05.908Z,30.00
2022-12-22T05:48:12.333Z,31.20
2022-12-22T05:51:17.838Z,30.38
2022-12-22T05:54:23.490Z,29.00
2022-12-22T05:57:29.591Z,31.45
2022-12-22T06:00:35.047Z,31.45
2022-12-22T06:03:40.396Z,31.83
2022-12-22T06:06:46.807Z,32.08
2022-12-22T06:09:52.911Z,30.90
2022-12-22T06:12:58.469Z,33.00
2022-12-22T06:16:04.675Z,30.95
2022-12-22T06:19:10.912Z,30.35
2022-12-22T06:22:17.103Z,31.00
2022-12-22T06:25:22.879Z,33.88
2022-12-22T06:28:29.433Z,33.40
2022-12-22T06:31:35.377Z,32.92
2022-12-22T06:34:41.206Z,33.00
2022-12-22T06:37:46.758Z,31.95
2022-12-22T06:40:52.165Z,32.60
2022-12-22T06:43:57.535Z,32.65
2022-12-22T06:47:03.104Z,32.63
2022-12-22T06:50:09.757Z,34.63
2022-12-22T06:53:15.747Z,34.75
2022-12-22T06:56:21.948Z,35.92
2022-12-22T06:59:27.378Z,33.95
2022-12-22T07:02:33.047Z,35.63
2022-12-22T07:05:38.921Z,36.67
2022-12-22T07:08:45.970Z,36.03
2022-12-22T07:11:51.531Z,37.42
2022-12-22T07:14:57.386Z,37.08
2022-12-22T07:18:02.922Z,41.75
2022-12-22T07:21:12.012Z,41.70
2022-12-22T07:24:23.469Z,41.83
2022-12-22T07:27:29.177Z,43.58
2022-12-22T07:30:37.136Z,42.72
2022-12-22T07:33:43.187Z,40.58
2022-12-22T07:36:48.990Z,39.35
2022-12-22T07:39:54.749Z,41.10
2022-12-22T07:43:01.124Z,41.63
2022-12-22T07:46:07.087Z,41.90
2022-12-22T07:49:36.444Z,42.13
2022-12-22T07:52:42.282Z,41.63
2022-12-22T07:55:48.078Z,38.60
2022-12-22T07:58:53.779Z,41.00
2022-12-22T08:01:59.943Z,42.00
2022-12-22T08:05:06.391Z,35.17
2022-12-22T08:08:12.413Z,38.17
2022-12-22T08:11:18.085Z,38.25
2022-12-22T08:14:23.953Z,40.10
2022-12-22T08:17:30.133Z,38.45
2022-12-22T08:20:35.743Z,37.65
2022-12-22T08:23:41.750Z,38.88
2022-12-22T08:26:52.887Z,37.58
2022-12-22T08:30:01.035Z,38.75
2022-12-22T08:33:06.386Z,38.17
2022-12-22T08:36:13.465Z,38.60
2022-12-22T08:39:22.852Z,38.78
2022-12-22T08:42:29.180Z,39.38
2022-12-22T08:45:34.662Z,39.63
2022-12-22T08:48:40.178Z,41.95
2022-12-22T08:51:47.160Z,38.35
2022-12-22T08:54:52.534Z,34.97
2022-12-22T08:57:58.249Z,35.63
2022-12-22T09:01:03.908Z,37.25
2022-12-22T09:04:09.412Z,36.80
2022-12-22T09:07:15.398Z,37.92
2022-12-22T09:10:20.821Z,37.05
2022-12-22T09:13:26.422Z,34.00
2022-12-22T09:16:33.824Z,35.28
2022-12-22T09:19:39.247Z,36.55
2022-12-22T09:22:45.148Z,36.22
2022-12-22T09:25:50.827Z,34.40
2022-12-22T09:28:57.082Z,36.78
2022-12-22T09:32:02.617Z,35.15
2022-12-22T09:35:08.322Z,34.55
2022-12-22T09:38:13.837Z,36.58
2022-12-22T09:41:27.458Z,34.33
2022-12-22T09:44:32.901Z,35.28
2022-12-22T09:47:40.585Z,35.15
2022-12-22T09:50:46.397Z,34.83
2022-12-22T09:54:00.615Z,36.20
2022-12-22T09:57:12.847Z,35.88
2022-12-22T10:00:22.213Z,35.20
2022-12-22T10:03:35.398Z,35.47
2022-12-22T10:07:08.719Z,41.60
2022-12-22T10:10:28.531Z,36.88
2022-12-22T10:13:35.211Z,36.40
2022-12-22T10:16:40.995Z,36.42
2022-12-22T10:19:48.127Z,38.42
2022-12-22T10:22:55.385Z,37.63
2022-12-22T10:26:29.146Z,38.20
2022-12-22T10:29:37.226Z,36.95
2022-12-22T10:32:43.233Z,37.90
2022-12-22T10:35:53.329Z,39.00
2022-12-22T10:39:06.622Z,38.83
2022-12-22T10:42:15.117Z,37.42
2022-12-22T10:45:24.157Z,36.38
2022-12-22T10:48:36.069Z,39.40
2022-12-22T10:51:47.240Z,38.67
2022-12-22T10:54:52.733Z,38.43
2022-12-22T10:58:17.864Z,38.42
2022-12-22T11:01:32.632Z,38.13
2022-12-22T11:04:38.370Z,38.63
2022-12-22T11:07:47.212Z,40.47
2022-12-22T11:11:44.345Z,39.70
2022-12-22T11:15:18.551Z,40.70
2022-12-22T11:18:42.469Z,38.00
2022-12-22T11:21:59.009Z,43.00
2022-12-22T11:25:30.310Z,44.17
2022-12-22T11:29:03.234Z,46.05
2022-12-22T11:32:32.421Z,39.15
2022-12-22T11:35:43.668Z,42.03
2022-12-22T11:38:59.391Z,40.97
2022-12-22T11:42:23.928Z,43.13
2022-12-22T11:45:53.145Z,40.22
2022-12-22T11:49:06.418Z,43.47
2022-12-22T11:52:46.111Z,42.92
2022-12-22T11:56:12.657Z,43.38
2022-12-22T11:59:38.610Z,42.00
2022-12-22T12:03:22.766Z,41.55
2022-12-22T12:06:40.471Z,41.53
2022-12-22T12:10:14.367Z,44.05
2022-12-22T12:14:15.144Z,44.38
2022-12-22T12:17:20.860Z,42.13
2022-12-22T12:20:53.948Z,44.90
2022-12-22T12:24:28.674Z,42.45
2022-12-22T12:27:36.529Z,45.78
2022-12-22T12:30:59.797Z,41.83
2022-12-22T12:34:10.162Z,41.58
2022-12-22T12:37:26.556Z,43.88
2022-12-22T12:41:03.200Z,44.50
2022-12-22T12:44:14.366Z,41.33
2022-12-22T12:47:36.323Z,42.00
2022-12-22T12:54:22.387Z,42.88
2022-12-22T12:57:47.527Z,40.67
2022-12-22T13:00:58.599Z,43.83
2022-12-22T13:04:06.019Z,41.80
2022-12-22T13:07:12.024Z,44.72
2022-12-22T13:10:26.206Z,45.88
2022-12-22T13:13:39.348Z,43.30
2022-12-22T13:16:45.019Z,45.80
2022-12-22T13:19:51.917Z,44.75
2022-12-22T13:23:00.586Z,47.17
2022-12-22T13:26:10.745Z,46.40
2022-12-22T13:29:20.540Z,47.05
2022-12-22T13:32:36.403Z,47.65
2022-12-22T13:35:48.361Z,48.30
2022-12-22T13:39:04.828Z,48.42
2022-12-22T13:42:13.999Z,47.38
2022-12-22T13:45:39.052Z,45.20
2022-12-22T13:48:54.732Z,47.80
2022-12-22T13:52:05.167Z,45.75
2022-12-22T13:55:16.528Z,48.42
2022-12-22T13:58:28.157Z,47.58
2022-12-22T14:01:35.051Z,53.80
2022-12-22T14:04:43.211Z,49.15
2022-12-22T14:08:07.139Z,46.03
2022-12-22T14:11:13.272Z,45.25
2022-12-22T14:14:22.801Z,47.92
2022-12-22T14:17:30.762Z,48.05
2022-12-22T14:20:40.629Z,45.40
2022-12-22T14:23:47.176Z,47.30
2022-12-22T14:26:54.793Z,46.60
2022-12-22T14:30:04.005Z,46.78
2022-12-22T14:33:27.549Z,46.28
2022-12-22T14:36:41.126Z,43.67
2022-12-22T14:39:56.791Z,40.78
2022-12-22T14:43:06.568Z,44.53
2022-12-22T14:46:12.397Z,44.28
2022-12-22T14:49:20.204Z,43.92
2022-12-22T14:52:36.135Z,46.97
2022-12-22T14:55:42.707Z,47.08
2022-12-22T14:58:50.036Z,45.63
2022-12-22T15:02:22.533Z,48.40
2022-12-22T15:05:33.611Z,47.50
2022-12-22T15:08:44.864Z,44.90
2022-12-22T15:11:56.374Z,42.03
2022-12-22T15:15:02.943Z,44.90
2022-12-22T15:18:15.821Z,46.22
2022-12-22T15:21:23.282Z,44.95
2022-12-22T15:24:29.822Z,44.40
2022-12-22T15:27:35.703Z,46.30
2022-12-22T15:30:42.146Z,47.95
2022-12-22T15:33:48.413Z,45.90
2022-12-22T15:36:54.878Z,48.15
2022-12-22T15:40:00.841Z,47.40
2022-12-22T15:43:17.253Z,47.25
2022-12-22T15:46:33.807Z,46.10
2022-12-22T15:49:39.958Z,46.83
2022-12-22T15:52:53.602Z,46.47
2022-12-22T15:55:59.149Z,48.63
2022-12-22T15:59:04.968Z,49.15
2022-12-22T16:02:13.007Z,48.95
2022-12-22T16:05:18.862Z,55.50
2022-12-22T16:08:31.690Z,48.28
2022-12-22T16:11:39.293Z,47.47
2022-12-22T16:14:52.410Z,50.65
2022-12-22T16:18:02.717Z,50.25
2022-12-22T16:21:32.981Z,48.00
2022-12-22T16:24:41.364Z,51.42
2022-12-22T16:27:49.722Z,49.08
2022-12-22T16:30:56.133Z,50.08
2022-12-22T16:34:01.859Z,48.55
2022-12-22T16:37:07.588Z,48.47
2022-12-22T16:40:13.739Z,48.78
2022-12-22T16:46:59.293Z,52.80
2022-12-22T16:50:16.537Z,53.83
2022-12-22T16:53:22.458Z,52.92
2022-12-22T16:56:30.793Z,52.00
2022-12-22T16:59:36.448Z,50.65
2022-12-22T17:02:44.605Z,51.88
2022-12-22T17:05:54.468Z,52.60
2022-12-22T17:09:00.018Z,51.63
2022-12-22T17:12:07.562Z,50.83
2022-12-22T17:15:23.485Z,50.33
2022-12-22T17:18:31.600Z,48.88
2022-12-22T17:21:37.236Z,47.38
2022-12-22T17:24:42.915Z,46.25
2022-12-22T17:27:48.515Z,49.13
2022-12-22T17:30:54.761Z,50.38
2022-12-22T17:34:00.516Z,47.08
2022-12-22T17:37:22.404Z,48.13
2022-12-22T17:40:32.667Z,47.60
2022-12-22T17:43:38.264Z,52.42
2022-12-22T17:46:43.417Z,49.20
2022-12-22T17:49:48.973Z,46.80
2022-12-22T17:52:55.641Z,46.85
2022-12-22T17:56:08.250Z,44.67
2022-12-22T17:59:14.866Z,47.50
2022-12-22T18:02:23.005Z,48.42
2022-12-22T18:05:34.511Z,46.13
2022-12-22T18:08:40.123Z,43.22
2022-12-22T18:11:46.356Z,45.85
2022-12-22T18:14:53.204Z,46.55
2022-12-22T18:17:58.819Z,43.30
2022-12-22T18:21:06.437Z,45.85
2022-12-22T18:24:19.682Z,44.03
2022-12-22T18:27:25.432Z,45.63
2022-12-22T18:30:32.534Z,48.15
2022-12-22T18:33:38.863Z,43.67
2022-12-22T18:36:46.081Z,49.25
2022-12-22T18:39:52.292Z,47.67
2022-12-22T18:42:59.066Z,45.35
2022-12-22T18:46:04.803Z,46.20
2022-12-22T18:49:10.270Z,46.70
2022-12-22T18:52:22.136Z,49.45
2022-12-22T18:55:30.859Z,45.80
2022-12-22T18:58:36.912Z,48.30
2022-12-22T19:01:43.284Z,48.47
2022-12-22T19:04:51.103Z,46.95
2022-12-22T19:07:58.212Z,43.28
2022-12-22T19:11:10.850Z,46.75
2022-12-22T19:14:20.555Z,46.53
2022-12-22T19:17:29.381Z,46.88
2022-12-22T19:20:37.017Z,55.78
2022-12-22T19:23:45.745Z,51.97
2022-12-22T19:26:53.179Z,55.28
2022-12-22T19:30:04.647Z,48.58
2022-12-22T19:33:25.270Z,43.03
2022-12-22T19:36:34.267Z,45.45
2022-12-22T19:39:41.309Z,45.80
2022-12-22T19:42:51.232Z,41.95
2022-12-22T19:45:58.809Z,46.17
2022-12-22T19:49:06.169Z,46.83
2022-12-22T19:52:13.569Z,45.45
2022-12-22T19:55:21.597Z,45.92
2022-12-22T19:58:39.010Z,47.40
2022-12-22T20:01:45.751Z,43.50
2022-12-22T20:04:52.853Z,46.22
2022-12-22T20:08:01.698Z,43.13
2022-12-22T20:11:20.458Z,46.35
2022-12-22T20:14:26.812Z,45.10
2022-12-22T20:17:33.616Z,44.92
2022-12-22T20:20:41.762Z,48.45
2022-12-22T20:23:48.879Z,47.70
2022-12-22T20:26:55.406Z,46.67
2022-12-22T20:30:02.275Z,46.83
2022-12-22T20:33:10.410Z,47.08
2022-12-22T20:36:29.112Z,49.17
2022-12-22T20:39:35.624Z,49.10
2022-12-22T20:42:42.345Z,47.53
2022-12-22T20:45:52.866Z,47.78
2022-12-22T20:49:02.508Z,47.00
2022-12-22T20:52:16.172Z,51.28
2022-12-22T20:55:25.715Z,50.38
2022-12-22T20:58:36.057Z,46.80
2022-12-22T21:01:42.310Z,52.90
2022-12-22T21:04:49.706Z,45.72
2022-12-22T21:07:57.157Z,47.22
2022-12-22T21:11:03.426Z,48.15
2022-12-22T21:14:11.420Z,47.85
2022-12-22T21:17:20.120Z,43.85
2022-12-22T21:20:29.738Z,46.15
2022-12-22T21:23:35.950Z,44.58
2022-12-22T21:26:53.179Z,45.75
2022-12-22T21:29:59.509Z,44.95
2022-12-22T21:33:05.437Z,44.22
2022-12-22T21:36:30.587Z,41.15
2022-12-22T21:39:45.138Z,42.70
2022-12-22T21:42:53.424Z,46.03
2022-12-22T21:46:00.067Z,40.92
2022-12-22T21:49:07.031Z,43.05
2022-12-22T21:52:13.878Z,40.58
2022-12-22T21:55:26.325Z,43.83
2022-12-22T21:58:33.195Z,39.63
2022-12-22T22:01:41.753Z,44.28
2022-12-22T22:04:53.996Z,44.03
2022-12-22T22:08:03.138Z,42.42
2022-12-22T22:11:24.413Z,44.50
2022-12-22T22:14:31.711Z,43.25
2022-12-22T22:17:37.866Z,42.47
2022-12-22T22:20:45.005Z,41.95
2022-12-22T22:23:51.475Z,40.78
2022-12-22T22:26:58.654Z,42.05
2022-12-22T22:30:07.417Z,42.72
2022-12-22T22:33:13.237Z,41.38
2022-12-22T22:36:20.023Z,41.55
2022-12-22T22:39:26.272Z,42.40
2022-12-22T22:42:32.491Z,41.85
2022-12-22T22:45:40.982Z,45.22
2022-12-22T22:48:48.978Z,38.92
2022-12-22T22:51:55.889Z,41.20
2022-12-22T22:55:02.690Z,37.13
2022-12-22T22:58:11.892Z,36.85
2022-12-22T23:01:18.285Z,38.53
2022-12-22T23:04:23.963Z,39.17
2022-12-22T23:07:30.796Z,39.63
2022-12-22T23:10:41.559Z,38.65
2022-12-22T23:13:48.333Z,40.00
2022-12-22T23:17:00.695Z,39.50
2022-12-22T23:23:12.473Z,38.30
2022-12-22T23:26:17.955Z,39.03
2022-12-22T23:29:23.404Z,40.38
2022-12-22T23:32:29.387Z,41.63
2022-12-22T23:35:40.015Z,41.15
2022-12-22T23:38:46.474Z,40.08
2022-12-22T23:41:52.103Z,40.60
2022-12-22T23:44:58.294Z,42.92
2022-12-22T23:48:04.968Z,41.30
2022-12-22T23:51:12.497Z,40.08
2022-12-22T23:54:19.152Z,41.00
2022-12-22T23:57:25.464Z,43.22
